sensor_id;sensor_type;location;lat;lon;timestamp;P1;durP1;ratioP1;P2;durP2;ratioP2
11531;SDS011;5822;51.000;5.874;2023-03-14T00:00:55;17.60;;;16.40;;
11531;SDS011;5822;51.000;5.874;2023-03-14T00:03:20;17.63;;;16.43;;
11531;SDS011;5822;51.000;5.874;2023-03-14T00:05:46;17.50;;;16.30;;
11531;SDS011;5822;51.000;5.874;2023-03-14T00:08:12;17.80;;;16.60;;
11531;SDS011;5822;51.000;5.874;2023-03-14T00:10:38;17.80;;;16.60;;
11531;SDS011;5822;51.000;5.874;2023-03-14T00:13:04;17.08;;;15.98;;
11531;SDS011;5822;51.000;5.874;2023-03-14T00:15:32;16.77;;;15.68;;
11531;SDS011;5822;51.000;5.874;2023-03-14T00:18:01;17.88;;;16.70;;
11531;SDS011;5822;51.000;5.874;2023-03-14T00:20:26;17.65;;;16.52;;
11531;SDS011;5822;51.000;5.874;2023-03-14T00:22:52;17.48;;;16.27;;
11531;SDS011;5822;51.000;5.874;2023-03-14T00:25:18;17.20;;;16.10;;
11531;SDS011;5822;51.000;5.874;2023-03-14T00:27:43;17.50;;;16.40;;
11531;SDS011;5822;51.000;5.874;2023-03-14T00:30:09;17.25;;;16.15;;
11531;SDS011;5822;51.000;5.874;2023-03-14T00:32:35;16.20;;;15.20;;
11531;SDS011;5822;51.000;5.874;2023-03-14T00:35:01;16.07;;;15.07;;
11531;SDS011;5822;51.000;5.874;2023-03-14T00:37:28;16.10;;;15.10;;
11531;SDS011;5822;51.000;5.874;2023-03-14T00:39:53;16.60;;;15.60;;
11531;SDS011;5822;51.000;5.874;2023-03-14T00:42:19;16.20;;;15.20;;
11531;SDS011;5822;51.000;5.874;2023-03-14T00:44:45;15.90;;;14.90;;
11531;SDS011;5822;51.000;5.874;2023-03-14T00:47:10;15.30;;;14.40;;
11531;SDS011;5822;51.000;5.874;2023-03-14T00:49:36;15.52;;;14.52;;
11531;SDS011;5822;51.000;5.874;2023-03-14T00:52:02;15.15;;;14.20;;
11531;SDS011;5822;51.000;5.874;2023-03-14T00:54:28;14.80;;;13.90;;
11531;SDS011;5822;51.000;5.874;2023-03-14T00:56:54;14.87;;;13.97;;
11531;SDS011;5822;51.000;5.874;2023-03-14T00:59:20;15.57;;;14.57;;
11531;SDS011;5822;51.000;5.874;2023-03-14T01:01:45;14.80;;;14.00;;
11531;SDS011;5822;51.000;5.874;2023-03-14T01:04:11;15.30;;;14.40;;
11531;SDS011;5822;51.000;5.874;2023-03-14T01:06:36;15.07;;;14.17;;
11531;SDS011;5822;51.000;5.874;2023-03-14T01:09:03;15.37;;;14.47;;
11531;SDS011;5822;51.000;5.874;2023-03-14T01:11:33;15.10;;;14.20;;
11531;SDS011;5822;51.000;5.874;2023-03-14T01:14:00;15.05;;;14.15;;
11531;SDS011;5822;51.000;5.874;2023-03-14T01:16:26;15.00;;;14.10;;
11531;SDS011;5822;51.000;5.874;2023-03-14T01:18:53;14.95;;;13.95;;
11531;SDS011;5822;51.000;5.874;2023-03-14T01:23:46;14.83;;;13.83;;
11531;SDS011;5822;51.000;5.874;2023-03-14T01:26:13;15.10;;;14.20;;
11531;SDS011;5822;51.000;5.874;2023-03-14T01:28:40;14.82;;;13.93;;
11531;SDS011;5822;51.000;5.874;2023-03-14T01:31:07;14.30;;;13.50;;
11531;SDS011;5822;51.000;5.874;2023-03-14T01:33:34;14.60;;;13.70;;
11531;SDS011;5822;51.000;5.874;2023-03-14T01:36:01;14.20;;;13.30;;
11531;SDS011;5822;51.000;5.874;2023-03-14T01:38:30;14.15;;;13.35;;
11531;SDS011;5822;51.000;5.874;2023-03-14T01:40:57;14.07;;;13.27;;
11531;SDS011;5822;51.000;5.874;2023-03-14T01:43:23;13.95;;;13.10;;
11531;SDS011;5822;51.000;5.874;2023-03-14T01:57:11;14.25;;;13.45;;
11531;SDS011;5822;51.000;5.874;2023-03-14T01:59:46;14.15;;;13.35;;
11531;SDS011;5822;51.000;5.874;2023-03-14T02:02:15;13.80;;;13.00;;
11531;SDS011;5822;51.000;5.874;2023-03-14T02:04:41;13.45;;;12.75;;
11531;SDS011;5822;51.000;5.874;2023-03-14T02:09:45;13.52;;;12.80;;
11531;SDS011;5822;51.000;5.874;2023-03-14T02:12:14;13.30;;;12.60;;
11531;SDS011;5822;51.000;5.874;2023-03-14T02:14:41;14.15;;;13.30;;
11531;SDS011;5822;51.000;5.874;2023-03-14T02:17:12;13.87;;;13.07;;
11531;SDS011;5822;51.000;5.874;2023-03-14T02:19:43;13.88;;;13.07;;
11531;SDS011;5822;51.000;5.874;2023-03-14T02:22:26;13.90;;;13.10;;
11531;SDS011;5822;51.000;5.874;2023-03-14T02:27:40;14.00;;;13.17;;
11531;SDS011;5822;51.000;5.874;2023-03-14T02:30:08;13.55;;;12.85;;
11531;SDS011;5822;51.000;5.874;2023-03-14T02:32:37;13.93;;;13.13;;
11531;SDS011;5822;51.000;5.874;2023-03-14T02:35:07;14.30;;;13.40;;
11531;SDS011;5822;51.000;5.874;2023-03-14T02:37:43;14.40;;;13.50;;
11531;SDS011;5822;51.000;5.874;2023-03-14T02:40:25;14.02;;;13.23;;
11531;SDS011;5822;51.000;5.874;2023-03-14T02:42:51;14.20;;;13.30;;
11531;SDS011;5822;51.000;5.874;2023-03-14T02:47:43;14.50;;;13.60;;
11531;SDS011;5822;51.000;5.874;2023-03-14T02:50:13;14.30;;;13.40;;
11531;SDS011;5822;51.000;5.874;2023-03-14T02:52:45;13.73;;;12.93;;
11531;SDS011;5822;51.000;5.874;2023-03-14T02:55:11;14.10;;;13.20;;
11531;SDS011;5822;51.000;5.874;2023-03-14T02:57:37;13.73;;;12.93;;
11531;SDS011;5822;51.000;5.874;2023-03-14T03:00:03;14.23;;;13.43;;
11531;SDS011;5822;51.000;5.874;2023-03-14T03:02:30;14.10;;;13.30;;
11531;SDS011;5822;51.000;5.874;2023-03-14T03:04:56;15.00;;;14.07;;
11531;SDS011;5822;51.000;5.874;2023-03-14T03:07:22;14.60;;;13.70;;
11531;SDS011;5822;51.000;5.874;2023-03-14T03:09:47;14.23;;;13.43;;
11531;SDS011;5822;51.000;5.874;2023-03-14T03:12:13;14.13;;;13.33;;
11531;SDS011;5822;51.000;5.874;2023-03-14T03:14:38;14.50;;;13.70;;
11531;SDS011;5822;51.000;5.874;2023-03-14T03:17:04;15.10;;;14.20;;
11531;SDS011;5822;51.000;5.874;2023-03-14T03:19:30;15.20;;;14.30;;
11531;SDS011;5822;51.000;5.874;2023-03-14T03:21:57;15.40;;;14.50;;
11531;SDS011;5822;51.000;5.874;2023-03-14T03:24:23;15.40;;;14.50;;
11531;SDS011;5822;51.000;5.874;2023-03-14T03:26:49;15.60;;;14.70;;
11531;SDS011;5822;51.000;5.874;2023-03-14T03:29:15;16.30;;;15.30;;
11531;SDS011;5822;51.000;5.874;2023-03-14T03:31:41;15.90;;;15.00;;
11531;SDS011;5822;51.000;5.874;2023-03-14T03:34:06;15.30;;;14.40;;
11531;SDS011;5822;51.000;5.874;2023-03-14T03:36:32;15.50;;;14.60;;
11531;SDS011;5822;51.000;5.874;2023-03-14T03:38:59;15.52;;;14.63;;
11531;SDS011;5822;51.000;5.874;2023-03-14T03:41:24;15.37;;;14.50;;
11531;SDS011;5822;51.000;5.874;2023-03-14T03:43:50;15.50;;;14.60;;
11531;SDS011;5822;51.000;5.874;2023-03-14T03:46:15;15.47;;;14.57;;
11531;SDS011;5822;51.000;5.874;2023-03-14T03:48:41;15.60;;;14.70;;
11531;SDS011;5822;51.000;5.874;2023-03-14T03:51:07;15.73;;;14.80;;
11531;SDS011;5822;51.000;5.874;2023-03-14T03:53:36;15.27;;;14.38;;
11531;SDS011;5822;51.000;5.874;2023-03-14T03:56:02;15.70;;;14.80;;
11531;SDS011;5822;51.000;5.874;2023-03-14T03:58:28;15.40;;;14.50;;
11531;SDS011;5822;51.000;5.874;2023-03-14T04:00:54;15.93;;;14.93;;
11531;SDS011;5822;51.000;5.874;2023-03-14T04:03:19;15.25;;;14.35;;
11531;SDS011;5822;51.000;5.874;2023-03-14T04:05:45;15.50;;;14.50;;
11531;SDS011;5822;51.000;5.874;2023-03-14T04:08:11;15.10;;;14.30;;
11531;SDS011;5822;51.000;5.874;2023-03-14T04:10:36;15.30;;;14.40;;
11531;SDS011;5822;51.000;5.874;2023-03-14T04:13:02;15.50;;;14.60;;
11531;SDS011;5822;51.000;5.874;2023-03-14T04:15:28;15.10;;;14.20;;
11531;SDS011;5822;51.000;5.874;2023-03-14T04:17:57;15.10;;;14.20;;
11531;SDS011;5822;51.000;5.874;2023-03-14T04:20:23;15.07;;;14.18;;
11531;SDS011;5822;51.000;5.874;2023-03-14T04:22:49;14.70;;;13.90;;
11531;SDS011;5822;51.000;5.874;2023-03-14T04:25:15;14.90;;;14.10;;
11531;SDS011;5822;51.000;5.874;2023-03-14T04:27:42;14.88;;;14.05;;
11531;SDS011;5822;51.000;5.874;2023-03-14T04:30:08;15.10;;;14.20;;
11531;SDS011;5822;51.000;5.874;2023-03-14T04:32:34;15.30;;;14.40;;
11531;SDS011;5822;51.000;5.874;2023-03-14T04:34:59;14.63;;;13.83;;
11531;SDS011;5822;51.000;5.874;2023-03-14T04:37:25;14.70;;;13.90;;
11531;SDS011;5822;51.000;5.874;2023-03-14T04:39:50;15.30;;;14.40;;
11531;SDS011;5822;51.000;5.874;2023-03-14T04:42:16;14.90;;;14.10;;
11531;SDS011;5822;51.000;5.874;2023-03-14T04:44:42;15.30;;;14.40;;
11531;SDS011;5822;51.000;5.874;2023-03-14T04:47:08;15.27;;;14.43;;
11531;SDS011;5822;51.000;5.874;2023-03-14T04:49:33;14.90;;;14.10;;
11531;SDS011;5822;51.000;5.874;2023-03-14T04:51:59;14.70;;;13.90;;
11531;SDS011;5822;51.000;5.874;2023-03-14T04:54:25;14.80;;;14.00;;
11531;SDS011;5822;51.000;5.874;2023-03-14T04:56:50;14.97;;;14.17;;
11531;SDS011;5822;51.000;5.874;2023-03-14T04:59:16;14.97;;;14.07;;
11531;SDS011;5822;51.000;5.874;2023-03-14T05:01:42;15.55;;;14.65;;
11531;SDS011;5822;51.000;5.874;2023-03-14T05:04:07;15.50;;;14.60;;
11531;SDS011;5822;51.000;5.874;2023-03-14T05:06:33;15.20;;;14.30;;
11531;SDS011;5822;51.000;5.874;2023-03-14T05:08:59;15.25;;;14.43;;
11531;SDS011;5822;51.000;5.874;2023-03-14T05:11:25;15.40;;;14.50;;
11531;SDS011;5822;51.000;5.874;2023-03-14T05:13:51;14.80;;;14.00;;
11531;SDS011;5822;51.000;5.874;2023-03-14T05:16:16;14.70;;;13.90;;
11531;SDS011;5822;51.000;5.874;2023-03-14T05:18:42;15.10;;;14.20;;
11531;SDS011;5822;51.000;5.874;2023-03-14T05:21:08;14.77;;;13.97;;
11531;SDS011;5822;51.000;5.874;2023-03-14T05:23:33;14.80;;;14.00;;
11531;SDS011;5822;51.000;5.874;2023-03-14T05:25:59;14.90;;;14.10;;
11531;SDS011;5822;51.000;5.874;2023-03-14T05:28:24;15.00;;;14.20;;
11531;SDS011;5822;51.000;5.874;2023-03-14T05:30:50;14.98;;;14.18;;
11531;SDS011;5822;51.000;5.874;2023-03-14T05:33:16;15.07;;;14.27;;
11531;SDS011;5822;51.000;5.874;2023-03-14T05:35:42;15.40;;;14.50;;
11531;SDS011;5822;51.000;5.874;2023-03-14T05:38:08;15.00;;;14.10;;
11531;SDS011;5822;51.000;5.874;2023-03-14T05:40:34;14.80;;;14.00;;
11531;SDS011;5822;51.000;5.874;2023-03-14T05:42:59;14.80;;;14.00;;
11531;SDS011;5822;51.000;5.874;2023-03-14T05:45:25;14.80;;;14.00;;
11531;SDS011;5822;51.000;5.874;2023-03-14T05:47:51;14.77;;;13.98;;
11531;SDS011;5822;51.000;5.874;2023-03-14T05:50:16;15.23;;;14.32;;
11531;SDS011;5822;51.000;5.874;2023-03-14T05:52:42;15.07;;;14.20;;
11531;SDS011;5822;51.000;5.874;2023-03-14T05:55:08;14.95;;;14.15;;
11531;SDS011;5822;51.000;5.874;2023-03-14T05:57:34;15.00;;;14.20;;
11531;SDS011;5822;51.000;5.874;2023-03-14T05:59:59;14.60;;;13.80;;
11531;SDS011;5822;51.000;5.874;2023-03-14T06:02:25;14.80;;;14.00;;
11531;SDS011;5822;51.000;5.874;2023-03-14T06:04:51;14.63;;;13.82;;
11531;SDS011;5822;51.000;5.874;2023-03-14T06:07:17;14.43;;;13.60;;
11531;SDS011;5822;51.000;5.874;2023-03-14T06:09:42;14.40;;;13.60;;
11531;SDS011;5822;51.000;5.874;2023-03-14T06:12:08;14.80;;;14.00;;
11531;SDS011;5822;51.000;5.874;2023-03-14T06:14:33;14.98;;;14.18;;
11531;SDS011;5822;51.000;5.874;2023-03-14T06:16:59;15.10;;;14.30;;
11531;SDS011;5822;51.000;5.874;2023-03-14T06:19:25;14.90;;;14.10;;
11531;SDS011;5822;51.000;5.874;2023-03-14T06:21:51;15.30;;;14.40;;
11531;SDS011;5822;51.000;5.874;2023-03-14T06:24:17;15.10;;;14.20;;
11531;SDS011;5822;51.000;5.874;2023-03-14T06:26:42;15.30;;;14.40;;
11531;SDS011;5822;51.000;5.874;2023-03-14T06:29:08;14.90;;;14.10;;
11531;SDS011;5822;51.000;5.874;2023-03-14T06:31:34;14.80;;;14.00;;
11531;SDS011;5822;51.000;5.874;2023-03-14T06:34:00;15.13;;;14.23;;
11531;SDS011;5822;51.000;5.874;2023-03-14T06:36:25;15.00;;;14.20;;
11531;SDS011;5822;51.000;5.874;2023-03-14T06:38:51;15.30;;;14.40;;
11531;SDS011;5822;51.000;5.874;2023-03-14T06:41:17;15.37;;;14.47;;
11531;SDS011;5822;51.000;5.874;2023-03-14T06:43:43;15.30;;;14.40;;
11531;SDS011;5822;51.000;5.874;2023-03-14T06:46:09;15.10;;;14.20;;
11531;SDS011;5822;51.000;5.874;2023-03-14T06:48:34;14.80;;;14.00;;
11531;SDS011;5822;51.000;5.874;2023-03-14T06:51:00;14.50;;;13.70;;
11531;SDS011;5822;51.000;5.874;2023-03-14T06:53:25;14.73;;;13.93;;
11531;SDS011;5822;51.000;5.874;2023-03-14T06:55:51;14.67;;;13.87;;
11531;SDS011;5822;51.000;5.874;2023-03-14T06:58:17;14.80;;;14.00;;
11531;SDS011;5822;51.000;5.874;2023-03-14T07:00:42;14.77;;;13.97;;
11531;SDS011;5822;51.000;5.874;2023-03-14T07:03:08;15.80;;;14.90;;
11531;SDS011;5822;51.000;5.874;2023-03-14T07:05:35;19.17;;;18.17;;
11531;SDS011;5822;51.000;5.874;2023-03-14T07:08:01;17.70;;;16.80;;
11531;SDS011;5822;51.000;5.874;2023-03-14T07:10:26;18.50;;;17.60;;
11531;SDS011;5822;51.000;5.874;2023-03-14T07:12:52;19.23;;;18.33;;
11531;SDS011;5822;51.000;5.874;2023-03-14T07:15:18;19.25;;;18.30;;
11531;SDS011;5822;51.000;5.874;2023-03-14T07:17:45;16.85;;;16.05;;
11531;SDS011;5822;51.000;5.874;2023-03-14T07:20:12;17.95;;;17.13;;
11531;SDS011;5822;51.000;5.874;2023-03-14T07:22:38;16.27;;;15.47;;
11531;SDS011;5822;51.000;5.874;2023-03-14T07:25:04;16.00;;;15.20;;
11531;SDS011;5822;51.000;5.874;2023-03-14T07:27:30;15.70;;;14.90;;
11531;SDS011;5822;51.000;5.874;2023-03-14T07:29:55;16.90;;;16.10;;
11531;SDS011;5822;51.000;5.874;2023-03-14T07:32:21;17.40;;;16.50;;
11531;SDS011;5822;51.000;5.874;2023-03-14T07:34:47;16.07;;;15.27;;
11531;SDS011;5822;51.000;5.874;2023-03-14T07:37:12;16.57;;;15.77;;
11531;SDS011;5822;51.000;5.874;2023-03-14T07:39:38;16.17;;;15.38;;
11531;SDS011;5822;51.000;5.874;2023-03-14T07:42:04;16.58;;;15.70;;
11531;SDS011;5822;51.000;5.874;2023-03-14T07:44:29;17.25;;;16.35;;
11531;SDS011;5822;51.000;5.874;2023-03-14T07:46:55;16.83;;;15.93;;
11531;SDS011;5822;51.000;5.874;2023-03-14T07:49:21;16.58;;;15.77;;
11531;SDS011;5822;51.000;5.874;2023-03-14T07:51:49;16.60;;;15.80;;
11531;SDS011;5822;51.000;5.874;2023-03-14T07:54:15;16.98;;;16.17;;
11531;SDS011;5822;51.000;5.874;2023-03-14T07:56:41;17.48;;;16.58;;
11531;SDS011;5822;51.000;5.874;2023-03-14T07:59:07;20.70;;;19.50;;
11531;SDS011;5822;51.000;5.874;2023-03-14T08:01:33;22.05;;;20.85;;
11531;SDS011;5822;51.000;5.874;2023-03-14T08:03:58;23.33;;;21.92;;
11531;SDS011;5822;51.000;5.874;2023-03-14T08:06:24;21.50;;;20.20;;
11531;SDS011;5822;51.000;5.874;2023-03-14T08:08:50;21.60;;;20.40;;
11531;SDS011;5822;51.000;5.874;2023-03-14T08:11:15;24.30;;;22.90;;
11531;SDS011;5822;51.000;5.874;2023-03-14T08:13:41;22.50;;;21.20;;
11531;SDS011;5822;51.000;5.874;2023-03-14T08:16:07;24.23;;;22.83;;
11531;SDS011;5822;51.000;5.874;2023-03-14T08:18:33;26.88;;;25.48;;
11531;SDS011;5822;51.000;5.874;2023-03-14T08:20:59;25.80;;;24.30;;
11531;SDS011;5822;51.000;5.874;2023-03-14T08:23:24;25.40;;;24.00;;
11531;SDS011;5822;51.000;5.874;2023-03-14T08:25:50;27.73;;;26.23;;
11531;SDS011;5822;51.000;5.874;2023-03-14T08:28:17;28.23;;;26.63;;
11531;SDS011;5822;51.000;5.874;2023-03-14T08:30:43;26.70;;;25.20;;
11531;SDS011;5822;51.000;5.874;2023-03-14T08:33:09;25.25;;;23.85;;
11531;SDS011;5822;51.000;5.874;2023-03-14T08:35:36;24.50;;;23.13;;
11531;SDS011;5822;51.000;5.874;2023-03-14T08:38:02;22.00;;;20.80;;
11531;SDS011;5822;51.000;5.874;2023-03-14T08:40:28;21.23;;;20.02;;
11531;SDS011;5822;51.000;5.874;2023-03-14T08:42:54;23.20;;;22.00;;
11531;SDS011;5822;51.000;5.874;2023-03-14T08:45:19;23.77;;;22.58;;
11531;SDS011;5822;51.000;5.874;2023-03-14T08:47:46;21.10;;;20.00;;
11531;SDS011;5822;51.000;5.874;2023-03-14T08:50:12;20.65;;;19.55;;
11531;SDS011;5822;51.000;5.874;2023-03-14T08:52:38;18.90;;;17.90;;
11531;SDS011;5822;51.000;5.874;2023-03-14T08:55:05;21.95;;;20.75;;
11531;SDS011;5822;51.000;5.874;2023-03-14T08:57:32;22.08;;;20.98;;
11531;SDS011;5822;51.000;5.874;2023-03-14T08:59:58;22.45;;;21.35;;
11531;SDS011;5822;51.000;5.874;2023-03-14T09:02:24;25.93;;;24.53;;
11531;SDS011;5822;51.000;5.874;2023-03-14T09:04:50;19.95;;;18.85;;
11531;SDS011;5822;51.000;5.874;2023-03-14T09:07:17;18.37;;;17.37;;
11531;SDS011;5822;51.000;5.874;2023-03-14T09:09:44;17.35;;;16.45;;
11531;SDS011;5822;51.000;5.874;2023-03-14T09:12:10;17.80;;;16.90;;
11531;SDS011;5822;51.000;5.874;2023-03-14T09:14:36;19.65;;;18.65;;
11531;SDS011;5822;51.000;5.874;2023-03-14T09:17:02;22.08;;;20.98;;
11531;SDS011;5822;51.000;5.874;2023-03-14T09:19:28;19.10;;;18.10;;
11531;SDS011;5822;51.000;5.874;2023-03-14T09:21:54;19.13;;;18.13;;
11531;SDS011;5822;51.000;5.874;2023-03-14T09:24:19;19.30;;;18.30;;
11531;SDS011;5822;51.000;5.874;2023-03-14T09:26:46;19.30;;;18.30;;
11531;SDS011;5822;51.000;5.874;2023-03-14T09:29:11;19.37;;;18.37;;
11531;SDS011;5822;51.000;5.874;2023-03-14T09:31:37;21.30;;;20.20;;
11531;SDS011;5822;51.000;5.874;2023-03-14T09:34:03;18.15;;;17.15;;
11531;SDS011;5822;51.000;5.874;2023-03-14T09:36:29;17.17;;;16.27;;
11531;SDS011;5822;51.000;5.874;2023-03-14T09:38:55;17.10;;;16.20;;
11531;SDS011;5822;51.000;5.874;2023-03-14T09:43:52;19.23;;;18.15;;
11531;SDS011;5822;51.000;5.874;2023-03-14T09:46:42;20.17;;;19.08;;
11531;SDS011;5822;51.000;5.874;2023-03-14T09:49:16;18.00;;;17.00;;
11531;SDS011;5822;51.000;5.874;2023-03-14T09:51:50;17.40;;;16.40;;
11531;SDS011;5822;51.000;5.874;2023-03-14T09:54:26;18.00;;;17.02;;
11531;SDS011;5822;51.000;5.874;2023-03-14T09:56:54;17.98;;;16.98;;
11531;SDS011;5822;51.000;5.874;2023-03-14T09:59:20;18.42;;;17.42;;
11531;SDS011;5822;51.000;5.874;2023-03-14T10:01:45;19.23;;;18.23;;
11531;SDS011;5822;51.000;5.874;2023-03-14T10:04:12;20.80;;;19.70;;
11531;SDS011;5822;51.000;5.874;2023-03-14T10:06:42;17.98;;;16.98;;
11531;SDS011;5822;51.000;5.874;2023-03-14T10:09:13;17.20;;;16.20;;
11531;SDS011;5822;51.000;5.874;2023-03-14T10:11:51;17.58;;;16.58;;
11531;SDS011;5822;51.000;5.874;2023-03-14T10:14:28;17.60;;;16.60;;
11531;SDS011;5822;51.000;5.874;2023-03-14T10:17:04;16.75;;;15.75;;
11531;SDS011;5822;51.000;5.874;2023-03-14T10:19:35;18.60;;;17.60;;
11531;SDS011;5822;51.000;5.874;2023-03-14T10:22:03;17.40;;;16.40;;
11531;SDS011;5822;51.000;5.874;2023-03-14T10:24:31;17.17;;;16.17;;
11531;SDS011;5822;51.000;5.874;2023-03-14T10:27:05;16.85;;;15.95;;
11531;SDS011;5822;51.000;5.874;2023-03-14T10:29:53;18.42;;;17.35;;
11531;SDS011;5822;51.000;5.874;2023-03-14T10:32:28;18.10;;;17.10;;
11531;SDS011;5822;51.000;5.874;2023-03-14T10:35:08;17.70;;;16.70;;
11531;SDS011;5822;51.000;5.874;2023-03-14T10:37:51;17.90;;;16.90;;
11531;SDS011;5822;51.000;5.874;2023-03-14T10:40:23;18.20;;;17.10;;
11531;SDS011;5822;51.000;5.874;2023-03-14T10:42:52;18.17;;;17.07;;
11531;SDS011;5822;51.000;5.874;2023-03-14T10:45:39;18.83;;;17.83;;
11531;SDS011;5822;51.000;5.874;2023-03-14T10:53:16;18.05;;;17.00;;
11531;SDS011;5822;51.000;5.874;2023-03-14T10:55:43;18.83;;;17.73;;
11531;SDS011;5822;51.000;5.874;2023-03-14T10:58:26;18.20;;;17.10;;
11531;SDS011;5822;51.000;5.874;2023-03-14T11:00:58;18.57;;;17.50;;
11531;SDS011;5822;51.000;5.874;2023-03-14T11:03:34;18.80;;;17.80;;
11531;SDS011;5822;51.000;5.874;2023-03-14T11:06:07;18.38;;;17.27;;
11531;SDS011;5822;51.000;5.874;2023-03-14T11:11:22;20.10;;;18.90;;
11531;SDS011;5822;51.000;5.874;2023-03-14T11:16:52;17.00;;;16.10;;
11531;SDS011;5822;51.000;5.874;2023-03-14T11:22:00;17.35;;;16.45;;
11531;SDS011;5822;51.000;5.874;2023-03-14T11:29:39;16.57;;;15.70;;
11531;SDS011;5822;51.000;5.874;2023-03-14T11:32:14;19.48;;;18.58;;
11531;SDS011;5822;51.000;5.874;2023-03-14T11:34:59;19.07;;;18.17;;
11531;SDS011;5822;51.000;5.874;2023-03-14T11:37:34;20.00;;;19.10;;
11531;SDS011;5822;51.000;5.874;2023-03-14T11:40:18;20.98;;;19.98;;
11531;SDS011;5822;51.000;5.874;2023-03-14T11:42:48;18.92;;;18.02;;
11531;SDS011;5822;51.000;5.874;2023-03-14T11:45:21;18.75;;;17.85;;
11531;SDS011;5822;51.000;5.874;2023-03-14T11:48:07;17.88;;;17.08;;
11531;SDS011;5822;51.000;5.874;2023-03-14T11:50:57;17.85;;;17.05;;
11531;SDS011;5822;51.000;5.874;2023-03-14T11:53:36;17.23;;;16.40;;
11531;SDS011;5822;51.000;5.874;2023-03-14T11:56:18;17.77;;;16.88;;
11531;SDS011;5822;51.000;5.874;2023-03-14T11:58:54;16.38;;;15.57;;
11531;SDS011;5822;51.000;5.874;2023-03-14T12:01:24;15.45;;;14.75;;
11531;SDS011;5822;51.000;5.874;2023-03-14T12:04:06;14.93;;;14.23;;
11531;SDS011;5822;51.000;5.874;2023-03-14T12:06:55;14.95;;;14.15;;
11531;SDS011;5822;51.000;5.874;2023-03-14T12:09:25;13.60;;;12.90;;
11531;SDS011;5822;51.000;5.874;2023-03-14T12:14:28;14.02;;;13.23;;
11531;SDS011;5822;51.000;5.874;2023-03-14T12:22:52;15.23;;;14.43;;
11531;SDS011;5822;51.000;5.874;2023-03-14T12:25:24;16.33;;;15.37;;
11531;SDS011;5822;51.000;5.874;2023-03-14T12:30:37;16.60;;;15.70;;
11531;SDS011;5822;51.000;5.874;2023-03-14T12:43:28;15.13;;;14.23;;
11531;SDS011;5822;51.000;5.874;2023-03-14T12:46:09;13.95;;;13.05;;
11531;SDS011;5822;51.000;5.874;2023-03-14T12:48:45;14.20;;;13.30;;
11531;SDS011;5822;51.000;5.874;2023-03-14T12:51:14;14.48;;;13.50;;
11531;SDS011;5822;51.000;5.874;2023-03-14T12:59:36;15.23;;;14.13;;
11531;SDS011;5822;51.000;5.874;2023-03-14T13:04:45;16.27;;;15.07;;
11531;SDS011;5822;51.000;5.874;2023-03-14T13:10:18;17.58;;;16.20;;
11531;SDS011;5822;51.000;5.874;2023-03-14T13:12:50;16.63;;;15.52;;
11531;SDS011;5822;51.000;5.874;2023-03-14T13:15:23;16.70;;;15.60;;
11531;SDS011;5822;51.000;5.874;2023-03-14T13:17:52;17.23;;;16.02;;
11531;SDS011;5822;51.000;5.874;2023-03-14T13:22:54;16.45;;;15.35;;
11531;SDS011;5822;51.000;5.874;2023-03-14T13:25:19;15.85;;;14.80;;
11531;SDS011;5822;51.000;5.874;2023-03-14T13:27:47;16.50;;;15.30;;
11531;SDS011;5822;51.000;5.874;2023-03-14T13:30:22;16.65;;;15.35;;
11531;SDS011;5822;51.000;5.874;2023-03-14T13:32:53;16.30;;;15.20;;
11531;SDS011;5822;51.000;5.874;2023-03-14T13:35:20;17.70;;;16.30;;
11531;SDS011;5822;51.000;5.874;2023-03-14T13:37:58;16.50;;;15.30;;
11531;SDS011;5822;51.000;5.874;2023-03-14T13:40:31;16.13;;;14.95;;
11531;SDS011;5822;51.000;5.874;2023-03-14T13:45:47;16.30;;;15.15;;
11531;SDS011;5822;51.000;5.874;2023-03-14T13:48:28;15.90;;;14.80;;
11531;SDS011;5822;51.000;5.874;2023-03-14T13:50:56;16.60;;;15.40;;
11531;SDS011;5822;51.000;5.874;2023-03-14T13:53:25;17.08;;;15.77;;
11531;SDS011;5822;51.000;5.874;2023-03-14T13:55:52;17.08;;;15.85;;
11531;SDS011;5822;51.000;5.874;2023-03-14T13:58:25;17.30;;;15.90;;
11531;SDS011;5822;51.000;5.874;2023-03-14T14:00:56;16.65;;;15.45;;
11531;SDS011;5822;51.000;5.874;2023-03-14T14:03:38;16.90;;;15.70;;
11531;SDS011;5822;51.000;5.874;2023-03-14T14:06:08;15.90;;;14.90;;
11531;SDS011;5822;51.000;5.874;2023-03-14T14:08:53;15.77;;;14.70;;
11531;SDS011;5822;51.000;5.874;2023-03-14T14:14:16;15.80;;;14.70;;
11531;SDS011;5822;51.000;5.874;2023-03-14T14:16:54;15.40;;;14.40;;
11531;SDS011;5822;51.000;5.874;2023-03-14T14:19:21;15.15;;;14.15;;
11531;SDS011;5822;51.000;5.874;2023-03-14T14:21:48;15.50;;;14.40;;
11531;SDS011;5822;51.000;5.874;2023-03-14T14:24:15;15.32;;;14.30;;
11531;SDS011;5822;51.000;5.874;2023-03-14T14:26:50;15.60;;;14.50;;
11531;SDS011;5822;51.000;5.874;2023-03-14T14:29:27;14.93;;;13.82;;
11531;SDS011;5822;51.000;5.874;2023-03-14T14:32:11;15.48;;;14.38;;
11531;SDS011;5822;51.000;5.874;2023-03-14T14:34:39;14.43;;;13.52;;
11531;SDS011;5822;51.000;5.874;2023-03-14T14:37:26;15.13;;;14.02;;
11531;SDS011;5822;51.000;5.874;2023-03-14T14:39:55;15.45;;;14.35;;
11531;SDS011;5822;51.000;5.874;2023-03-14T14:42:24;14.40;;;13.50;;
11531;SDS011;5822;51.000;5.874;2023-03-14T14:44:55;14.55;;;13.57;;
11531;SDS011;5822;51.000;5.874;2023-03-14T14:47:25;14.30;;;13.45;;
11531;SDS011;5822;51.000;5.874;2023-03-14T14:49:53;14.75;;;13.77;;
11531;SDS011;5822;51.000;5.874;2023-03-14T14:52:43;14.43;;;13.52;;
11531;SDS011;5822;51.000;5.874;2023-03-14T14:55:52;14.95;;;13.95;;
11531;SDS011;5822;51.000;5.874;2023-03-14T14:58:11;14.80;;;13.83;;
11531;SDS011;5822;51.000;5.874;2023-03-14T15:01:31;14.68;;;13.77;;
11531;SDS011;5822;51.000;5.874;2023-03-14T15:03:55;14.52;;;13.52;;
11531;SDS011;5822;51.000;5.874;2023-03-14T15:06:20;15.10;;;14.00;;
11531;SDS011;5822;51.000;5.874;2023-03-14T15:08:49;15.48;;;14.38;;
11531;SDS011;5822;51.000;5.874;2023-03-14T15:11:18;15.38;;;14.27;;
11531;SDS011;5822;51.000;5.874;2023-03-14T15:13:49;15.65;;;14.50;;
11531;SDS011;5822;51.000;5.874;2023-03-14T15:16:16;16.00;;;14.80;;
11531;SDS011;5822;51.000;5.874;2023-03-14T15:18:44;15.63;;;14.63;;
11531;SDS011;5822;51.000;5.874;2023-03-14T15:21:14;15.70;;;14.70;;
11531;SDS011;5822;51.000;5.874;2023-03-14T15:23:40;16.00;;;14.90;;
11531;SDS011;5822;51.000;5.874;2023-03-14T15:26:16;15.57;;;14.57;;
11531;SDS011;5822;51.000;5.874;2023-03-14T15:28:43;15.77;;;14.77;;
11531;SDS011;5822;51.000;5.874;2023-03-14T15:31:12;16.00;;;15.00;;
11531;SDS011;5822;51.000;5.874;2023-03-14T15:33:39;16.40;;;15.30;;
11531;SDS011;5822;51.000;5.874;2023-03-14T15:36:06;16.85;;;15.75;;
11531;SDS011;5822;51.000;5.874;2023-03-14T15:38:41;17.27;;;16.07;;
11531;SDS011;5822;51.000;5.874;2023-03-14T15:41:07;17.10;;;16.00;;
11531;SDS011;5822;51.000;5.874;2023-03-14T15:43:34;17.30;;;16.10;;
11531;SDS011;5822;51.000;5.874;2023-03-14T15:46:02;17.30;;;16.20;;
11531;SDS011;5822;51.000;5.874;2023-03-14T15:48:31;17.60;;;16.40;;
11531;SDS011;5822;51.000;5.874;2023-03-14T15:50:56;17.77;;;16.57;;
11531;SDS011;5822;51.000;5.874;2023-03-14T15:53:22;17.50;;;16.40;;
11531;SDS011;5822;51.000;5.874;2023-03-14T15:55:47;18.03;;;16.73;;
11531;SDS011;5822;51.000;5.874;2023-03-14T15:58:15;17.50;;;16.40;;
11531;SDS011;5822;51.000;5.874;2023-03-14T16:00:42;16.90;;;15.80;;
11531;SDS011;5822;51.000;5.874;2023-03-14T16:03:07;17.23;;;16.13;;
11531;SDS011;5822;51.000;5.874;2023-03-14T16:05:33;17.13;;;16.03;;